sensor_id;sensor_type;location;lat;lon;timestamp;temperature;humidity
26224;DHT22;14820;48.682;8.890;2023-09-30T00:00:26;15.00;99.90
26224;DHT22;14820;48.682;8.890;2023-09-30T00:02:52;15.00;99.90
26224;DHT22;14820;48.682;8.890;2023-09-30T00:05:18;15.00;99.90
26224;DHT22;14820;48.682;8.890;2023-09-30T00:07:45;14.90;99.90
26224;DHT22;14820;48.682;8.890;2023-09-30T00:10:11;14.90;99.90
26224;DHT22;14820;48.682;8.890;2023-09-30T00:12:37;15.00;99.90
26224;DHT22;14820;48.682;8.890;2023-09-30T00:15:03;15.00;99.90
26224;DHT22;14820;48.682;8.890;2023-09-30T00:17:29;15.00;99.90
26224;DHT22;14820;48.682;8.890;2023-09-30T00:19:55;15.10;99.90
26224;DHT22;14820;48.682;8.890;2023-09-30T00:22:21;15.10;99.90
26224;DHT22;14820;48.682;8.890;2023-09-30T00:24:47;15.20;99.90
26224;DHT22;14820;48.682;8.890;2023-09-30T00:27:13;15.20;99.90
26224;DHT22;14820;48.682;8.890;2023-09-30T00:29:39;15.10;99.90
26224;DHT22;14820;48.682;8.890;2023-09-30T00:32:05;15.00;99.90
26224;DHT22;14820;48.682;8.890;2023-09-30T00:34:34;14.90;99.90
26224;DHT22;14820;48.682;8.890;2023-09-30T00:37:00;14.90;99.90
26224;DHT22;14820;48.682;8.890;2023-09-30T00:39:26;14.80;99.90
26224;DHT22;14820;48.682;8.890;2023-09-30T00:41:58;14.80;99.90
26224;DHT22;14820;48.682;8.890;2023-09-30T00:44:28;14.70;99.90
26224;DHT22;14820;48.682;8.890;2023-09-30T00:46:54;14.80;99.90
26224;DHT22;14820;48.682;8.890;2023-09-30T00:49:25;14.80;99.90
26224;DHT22;14820;48.682;8.890;2023-09-30T00:51:51;14.80;99.90
26224;DHT22;14820;48.682;8.890;2023-09-30T00:54:18;14.80;99.90
26224;DHT22;14820;48.682;8.890;2023-09-30T00:56:46;14.70;99.90
26224;DHT22;14820;48.682;8.890;2023-09-30T00:59:15;14.70;99.90
26224;DHT22;14820;48.682;8.890;2023-09-30T01:01:45;14.80;99.90
26224;DHT22;14820;48.682;8.890;2023-09-30T01:04:11;14.80;99.90
26224;DHT22;14820;48.682;8.890;2023-09-30T01:06:37;14.80;99.90
26224;DHT22;14820;48.682;8.890;2023-09-30T01:09:03;14.80;99.90
26224;DHT22;14820;48.682;8.890;2023-09-30T01:11:29;14.70;99.90
26224;DHT22;14820;48.682;8.890;2023-09-30T01:13:55;14.80;99.90
26224;DHT22;14820;48.682;8.890;2023-09-30T01:16:22;14.80;99.90
26224;DHT22;14820;48.682;8.890;2023-09-30T01:18:48;14.80;99.90
26224;DHT22;14820;48.682;8.890;2023-09-30T01:21:14;14.70;99.90
26224;DHT22;14820;48.682;8.890;2023-09-30T01:23:40;14.60;99.90
26224;DHT22;14820;48.682;8.890;2023-09-30T01:26:08;14.60;99.90
26224;DHT22;14820;48.682;8.890;2023-09-30T01:28:34;14.50;99.90
26224;DHT22;14820;48.682;8.890;2023-09-30T01:31:00;14.50;99.90
26224;DHT22;14820;48.682;8.890;2023-09-30T01:33:26;14.50;99.90
26224;DHT22;14820;48.682;8.890;2023-09-30T01:35:53;14.40;99.90
26224;DHT22;14820;48.682;8.890;2023-09-30T01:38:18;14.40;99.90
26224;DHT22;14820;48.682;8.890;2023-09-30T01:40:45;14.40;99.90
26224;DHT22;14820;48.682;8.890;2023-09-30T01:43:12;14.40;99.90
26224;DHT22;14820;48.682;8.890;2023-09-30T01:45:41;14.40;99.90
26224;DHT22;14820;48.682;8.890;2023-09-30T01:48:08;14.40;99.90
26224;DHT22;14820;48.682;8.890;2023-09-30T01:50:36;14.30;99.90
26224;DHT22;14820;48.682;8.890;2023-09-30T01:53:03;14.30;99.90
26224;DHT22;14820;48.682;8.890;2023-09-30T01:55:29;14.30;99.90
26224;DHT22;14820;48.682;8.890;2023-09-30T01:57:54;14.40;99.90
26224;DHT22;14820;48.682;8.890;2023-09-30T02:00:20;14.50;99.90
26224;DHT22;14820;48.682;8.890;2023-09-30T02:02:46;14.50;99.90
26224;DHT22;14820;48.682;8.890;2023-09-30T02:05:11;14.50;99.90
26224;DHT22;14820;48.682;8.890;2023-09-30T02:07:37;14.50;99.90
26224;DHT22;14820;48.682;8.890;2023-09-30T02:10:03;14.40;99.90
26224;DHT22;14820;48.682;8.890;2023-09-30T02:12:29;14.40;99.90
26224;DHT22;14820;48.682;8.890;2023-09-30T02:14:54;14.30;99.90
26224;DHT22;14820;48.682;8.890;2023-09-30T02:17:20;14.30;99.90
26224;DHT22;14820;48.682;8.890;2023-09-30T02:19:46;14.20;99.90
26224;DHT22;14820;48.682;8.890;2023-09-30T02:22:12;14.20;99.90
26224;DHT22;14820;48.682;8.890;2023-09-30T02:24:38;14.20;99.90
26224;DHT22;14820;48.682;8.890;2023-09-30T02:27:05;14.10;99.90
26224;DHT22;14820;48.682;8.890;2023-09-30T02:29:31;14.10;99.90
26224;DHT22;14820;48.682;8.890;2023-09-30T02:31:57;14.10;99.90
26224;DHT22;14820;48.682;8.890;2023-09-30T02:34:23;14.10;99.90
26224;DHT22;14820;48.682;8.890;2023-09-30T02:36:49;14.00;99.90
26224;DHT22;14820;48.682;8.890;2023-09-30T02:39:15;14.00;99.90
26224;DHT22;14820;48.682;8.890;2023-09-30T02:41:42;13.90;99.90
26224;DHT22;14820;48.682;8.890;2023-09-30T02:44:08;13.90;99.90
26224;DHT22;14820;48.682;8.890;2023-09-30T02:46:34;14.00;99.90
26224;DHT22;14820;48.682;8.890;2023-09-30T02:49:01;14.00;99.90
26224;DHT22;14820;48.682;8.890;2023-09-30T02:51:27;14.00;99.90
26224;DHT22;14820;48.682;8.890;2023-09-30T02:53:53;14.00;99.90
26224;DHT22;14820;48.682;8.890;2023-09-30T02:56:19;14.00;99.90
26224;DHT22;14820;48.682;8.890;2023-09-30T02:58:46;14.00;99.90
26224;DHT22;14820;48.682;8.890;2023-09-30T03:01:14;14.00;99.90
26224;DHT22;14820;48.682;8.890;2023-09-30T03:03:42;14.00;99.90
26224;DHT22;14820;48.682;8.890;2023-09-30T03:06:10;14.00;99.90
26224;DHT22;14820;48.682;8.890;2023-09-30T03:08:36;13.90;99.90
26224;DHT22;14820;48.682;8.890;2023-09-30T03:11:02;13.90;99.90
26224;DHT22;14820;48.682;8.890;2023-09-30T03:13:28;13.90;99.90
26224;DHT22;14820;48.682;8.890;2023-09-30T03:15:54;13.90;99.90
26224;DHT22;14820;48.682;8.890;2023-09-30T03:18:22;13.90;99.90
26224;DHT22;14820;48.682;8.890;2023-09-30T03:20:58;13.90;99.90
26224;DHT22;14820;48.682;8.890;2023-09-30T03:23:26;13.90;99.90
26224;DHT22;14820;48.682;8.890;2023-09-30T03:25:58;13.90;99.90
26224;DHT22;14820;48.682;8.890;2023-09-30T03:28:24;13.90;99.90
26224;DHT22;14820;48.682;8.890;2023-09-30T03:30:50;13.80;99.90
26224;DHT22;14820;48.682;8.890;2023-09-30T03:33:16;13.80;99.90
26224;DHT22;14820;48.682;8.890;2023-09-30T03:35:42;13.90;99.90
26224;DHT22;14820;48.682;8.890;2023-09-30T03:38:08;13.80;99.90
26224;DHT22;14820;48.682;8.890;2023-09-30T03:40:35;13.80;99.90
26224;DHT22;14820;48.682;8.890;2023-09-30T03:43:04;13.90;99.90
26224;DHT22;14820;48.682;8.890;2023-09-30T03:45:31;13.90;99.90
26224;DHT22;14820;48.682;8.890;2023-09-30T03:47:58;13.80;99.90
26224;DHT22;14820;48.682;8.890;2023-09-30T03:50:24;13.80;99.90
26224;DHT22;14820;48.682;8.890;2023-09-30T03:52:50;13.80;99.90
26224;DHT22;14820;48.682;8.890;2023-09-30T03:55:18;13.70;99.90
26224;DHT22;14820;48.682;8.890;2023-09-30T03:57:46;13.70;99.90
26224;DHT22;14820;48.682;8.890;2023-09-30T04:00:13;13.70;99.90
26224;DHT22;14820;48.682;8.890;2023-09-30T04:02:42;13.70;99.90
26224;DHT22;14820;48.682;8.890;2023-09-30T04:05:08;13.70;99.90
26224;DHT22;14820;48.682;8.890;2023-09-30T04:07:37;13.80;99.90
26224;DHT22;14820;48.682;8.890;2023-09-30T04:10:03;13.80;99.90
26224;DHT22;14820;48.682;8.890;2023-09-30T04:12:29;13.80;99.90
26224;DHT22;14820;48.682;8.890;2023-09-30T04:14:58;13.80;99.90
26224;DHT22;14820;48.682;8.890;2023-09-30T04:17:24;13.80;99.90
26224;DHT22;14820;48.682;8.890;2023-09-30T04:19:49;13.90;99.90
26224;DHT22;14820;48.682;8.890;2023-09-30T04:22:18;13.90;99.90
26224;DHT22;14820;48.682;8.890;2023-09-30T04:24:51;13.90;99.90
26224;DHT22;14820;48.682;8.890;2023-09-30T04:27:17;13.80;99.90
26224;DHT22;14820;48.682;8.890;2023-09-30T04:29:43;13.90;99.90
26224;DHT22;14820;48.682;8.890;2023-09-30T04:32:09;13.90;99.90
26224;DHT22;14820;48.682;8.890;2023-09-30T04:34:35;13.80;99.90
26224;DHT22;14820;48.682;8.890;2023-09-30T04:37:01;13.80;99.90
26224;DHT22;14820;48.682;8.890;2023-09-30T04:39:27;13.70;99.90
26224;DHT22;14820;48.682;8.890;2023-09-30T04:41:53;13.70;99.90
26224;DHT22;14820;48.682;8.890;2023-09-30T04:44:20;13.70;99.90
26224;DHT22;14820;48.682;8.890;2023-09-30T04:46:47;13.70;99.90
26224;DHT22;14820;48.682;8.890;2023-09-30T04:49:15;13.70;99.90
26224;DHT22;14820;48.682;8.890;2023-09-30T04:51:41;13.70;99.90
26224;DHT22;14820;48.682;8.890;2023-09-30T04:54:07;13.70;99.90
26224;DHT22;14820;48.682;8.890;2023-09-30T04:56:34;13.70;99.90
26224;DHT22;14820;48.682;8.890;2023-09-30T04:59:01;13.70;99.90
26224;DHT22;14820;48.682;8.890;2023-09-30T05:01:28;13.70;99.90
26224;DHT22;14820;48.682;8.890;2023-09-30T05:03:53;13.70;99.90
26224;DHT22;14820;48.682;8.890;2023-09-30T05:06:19;13.70;99.90
26224;DHT22;14820;48.682;8.890;2023-09-30T05:08:46;13.70;99.90
26224;DHT22;14820;48.682;8.890;2023-09-30T05:11:13;13.70;99.90
26224;DHT22;14820;48.682;8.890;2023-09-30T05:13:39;13.70;99.90
26224;DHT22;14820;48.682;8.890;2023-09-30T05:16:04;13.80;99.90
26224;DHT22;14820;48.682;8.890;2023-09-30T05:18:33;13.90;99.90
26224;DHT22;14820;48.682;8.890;2023-09-30T05:20:58;13.90;99.90
26224;DHT22;14820;48.682;8.890;2023-09-30T05:23:24;14.00;99.90
26224;DHT22;14820;48.682;8.890;2023-09-30T05:25:51;14.00;99.90
26224;DHT22;14820;48.682;8.890;2023-09-30T05:28:16;13.90;99.90
26224;DHT22;14820;48.682;8.890;2023-09-30T05:30:42;13.90;99.90
26224;DHT22;14820;48.682;8.890;2023-09-30T05:33:09;13.90;99.90
26224;DHT22;14820;48.682;8.890;2023-09-30T05:35:42;13.90;99.90
26224;DHT22;14820;48.682;8.890;2023-09-30T05:38:08;13.90;99.90
26224;DHT22;14820;48.682;8.890;2023-09-30T05:40:34;13.90;99.90
26224;DHT22;14820;48.682;8.890;2023-09-30T05:42:59;13.90;99.90
26224;DHT22;14820;48.682;8.890;2023-09-30T05:45:26;13.90;99.90
26224;DHT22;14820;48.682;8.890;2023-09-30T05:47:53;13.90;99.90
26224;DHT22;14820;48.682;8.890;2023-09-30T05:50:20;13.90;99.90
26224;DHT22;14820;48.682;8.890;2023-09-30T05:52:53;13.90;99.90
26224;DHT22;14820;48.682;8.890;2023-09-30T05:55:20;14.00;99.90
26224;DHT22;14820;48.682;8.890;2023-09-30T05:57:49;13.90;99.90
26224;DHT22;14820;48.682;8.890;2023-09-30T06:00:16;13.90;99.90
26224;DHT22;14820;48.682;8.890;2023-09-30T06:03:08;13.90;99.90
26224;DHT22;14820;48.682;8.890;2023-09-30T06:05:39;13.90;99.90
26224;DHT22;14820;48.682;8.890;2023-09-30T06:08:05;13.80;99.90
26224;DHT22;14820;48.682;8.890;2023-09-30T06:10:34;13.80;99.90
26224;DHT22;14820;48.682;8.890;2023-09-30T06:13:00;13.80;99.90
26224;DHT22;14820;48.682;8.890;2023-09-30T06:15:28;13.80;99.90
26224;DHT22;14820;48.682;8.890;2023-09-30T06:17:54;13.90;99.90
26224;DHT22;14820;48.682;8.890;2023-09-30T06:20:21;13.90;99.90
26224;DHT22;14820;48.682;8.890;2023-09-30T06:22:48;13.90;99.90
26224;DHT22;14820;48.682;8.890;2023-09-30T06:25:18;13.90;99.90
26224;DHT22;14820;48.682;8.890;2023-09-30T06:27:44;13.90;99.90
26224;DHT22;14820;48.682;8.890;2023-09-30T06:30:11;13.90;99.90
26224;DHT22;14820;48.682;8.890;2023-09-30T06:32:36;13.80;99.90
26224;DHT22;14820;48.682;8.890;2023-09-30T06:35:03;13.80;99.90
26224;DHT22;14820;48.682;8.890;2023-09-30T06:37:29;13.80;99.90
26224;DHT22;14820;48.682;8.890;2023-09-30T06:39:55;13.80;99.90
26224;DHT22;14820;48.682;8.890;2023-09-30T06:42:21;13.80;99.90
26224;DHT22;14820;48.682;8.890;2023-09-30T06:44:47;13.80;99.90
26224;DHT22;14820;48.682;8.890;2023-09-30T06:47:12;13.80;99.90
26224;DHT22;14820;48.682;8.890;2023-09-30T06:49:38;13.80;99.90
26224;DHT22;14820;48.682;8.890;2023-09-30T06:52:05;13.90;99.90
26224;DHT22;14820;48.682;8.890;2023-09-30T06:54:31;13.90;99.90
26224;DHT22;14820;48.682;8.890;2023-09-30T06:56:57;13.90;99.90
26224;DHT22;14820;48.682;8.890;2023-09-30T06:59:22;13.90;99.90
26224;DHT22;14820;48.682;8.890;2023-09-30T07:01:48;13.90;99.90
26224;DHT22;14820;48.682;8.890;2023-09-30T07:04:13;14.00;99.90
26224;DHT22;14820;48.682;8.890;2023-09-30T07:06:39;14.10;99.90
26224;DHT22;14820;48.682;8.890;2023-09-30T07:09:05;14.10;99.90
26224;DHT22;14820;48.682;8.890;2023-09-30T07:11:31;14.20;99.90
26224;DHT22;14820;48.682;8.890;2023-09-30T07:13:59;14.20;99.90
26224;DHT22;14820;48.682;8.890;2023-09-30T07:16:25;14.20;99.90
26224;DHT22;14820;48.682;8.890;2023-09-30T07:18:51;14.20;99.90
26224;DHT22;14820;48.682;8.890;2023-09-30T07:21:17;14.30;99.90
26224;DHT22;14820;48.682;8.890;2023-09-30T07:23:43;14.30;99.90
26224;DHT22;14820;48.682;8.890;2023-09-30T07:26:08;14.40;99.90
26224;DHT22;14820;48.682;8.890;2023-09-30T07:28:34;14.40;99.90
26224;DHT22;14820;48.682;8.890;2023-09-30T07:31:00;14.40;99.90
26224;DHT22;14820;48.682;8.890;2023-09-30T07:33:26;14.60;99.90
26224;DHT22;14820;48.682;8.890;2023-09-30T07:35:52;14.60;99.90
26224;DHT22;14820;48.682;8.890;2023-09-30T07:38:17;14.70;99.90
26224;DHT22;14820;48.682;8.890;2023-09-30T07:40:43;14.80;99.90
26224;DHT22;14820;48.682;8.890;2023-09-30T07:43:10;14.90;99.90
26224;DHT22;14820;48.682;8.890;2023-09-30T07:45:36;14.90;99.90
26224;DHT22;14820;48.682;8.890;2023-09-30T07:48:02;15.00;99.90
26224;DHT22;14820;48.682;8.890;2023-09-30T07:50:30;15.00;99.90
26224;DHT22;14820;48.682;8.890;2023-09-30T07:52:56;15.00;99.90
26224;DHT22;14820;48.682;8.890;2023-09-30T07:55:21;15.10;99.90
26224;DHT22;14820;48.682;8.890;2023-09-30T07:57:48;15.20;99.90
26224;DHT22;14820;48.682;8.890;2023-09-30T08:00:13;15.20;99.90
26224;DHT22;14820;48.682;8.890;2023-09-30T08:02:42;15.30;99.90
26224;DHT22;14820;48.682;8.890;2023-09-30T08:05:09;15.40;99.90
26224;DHT22;14820;48.682;8.890;2023-09-30T08:07:35;15.50;99.90
26224;DHT22;14820;48.682;8.890;2023-09-30T08:10:02;15.50;99.90
26224;DHT22;14820;48.682;8.890;2023-09-30T08:12:30;15.60;99.90
26224;DHT22;14820;48.682;8.890;2023-09-30T08:14:56;15.60;99.90
26224;DHT22;14820;48.682;8.890;2023-09-30T08:17:21;15.60;99.90
26224;DHT22;14820;48.682;8.890;2023-09-30T08:19:47;15.60;99.90
26224;DHT22;14820;48.682;8.890;2023-09-30T08:22:13;15.70;99.90
26224;DHT22;14820;48.682;8.890;2023-09-30T08:24:39;15.70;99.90
26224;DHT22;14820;48.682;8.890;2023-09-30T08:27:05;15.80;99.90
26224;DHT22;14820;48.682;8.890;2023-09-30T08:29:34;15.80;99.90
26224;DHT22;14820;48.682;8.890;2023-09-30T08:32:03;15.90;99.90
26224;DHT22;14820;48.682;8.890;2023-09-30T08:34:29;15.90;99.90
26224;DHT22;14820;48.682;8.890;2023-09-30T08:36:55;15.90;99.90
26224;DHT22;14820;48.682;8.890;2023-09-30T08:39:20;15.90;99.90
26224;DHT22;14820;48.682;8.890;2023-09-30T08:41:46;16.00;99.90
26224;DHT22;14820;48.682;8.890;2023-09-30T08:44:12;16.00;99.90
26224;DHT22;14820;48.682;8.890;2023-09-30T08:46:39;16.00;99.90
26224;DHT22;14820;48.682;8.890;2023-09-30T08:49:06;16.00;99.90
26224;DHT22;14820;48.682;8.890;2023-09-30T08:51:32;16.00;99.90
26224;DHT22;14820;48.682;8.890;2023-09-30T08:54:00;16.10;99.90
26224;DHT22;14820;48.682;8.890;2023-09-30T08:56:30;16.20;99.90
26224;DHT22;14820;48.682;8.890;2023-09-30T08:58:59;16.20;99.90
26224;DHT22;14820;48.682;8.890;2023-09-30T09:01:27;16.30;99.90
26224;DHT22;14820;48.682;8.890;2023-09-30T09:03:54;16.30;99.90
26224;DHT22;14820;48.682;8.890;2023-09-30T09:06:21;16.40;99.90
26224;DHT22;14820;48.682;8.890;2023-09-30T09:08:46;16.40;99.90
26224;DHT22;14820;48.682;8.890;2023-09-30T09:11:13;16.40;99.90
26224;DHT22;14820;48.682;8.890;2023-09-30T09:13:50;16.40;99.90
26224;DHT22;14820;48.682;8.890;2023-09-30T09:16:21;16.50;99.90
26224;DHT22;14820;48.682;8.890;2023-09-30T09:18:47;16.50;99.90
26224;DHT22;14820;48.682;8.890;2023-09-30T09:21:15;16.60;99.90
26224;DHT22;14820;48.682;8.890;2023-09-30T09:23:46;16.70;99.90
26224;DHT22;14820;48.682;8.890;2023-09-30T09:26:29;16.80;99.90
26224;DHT22;14820;48.682;8.890;2023-09-30T09:29:02;16.90;99.90
26224;DHT22;14820;48.682;8.890;2023-09-30T09:31:31;16.90;99.90
26224;DHT22;14820;48.682;8.890;2023-09-30T09:33:58;16.90;99.90
26224;DHT22;14820;48.682;8.890;2023-09-30T09:39:06;16.70;99.90
26224;DHT22;14820;48.682;8.890;2023-09-30T09:41:32;16.70;99.90
26224;DHT22;14820;48.682;8.890;2023-09-30T09:43:59;16.70;99.90
26224;DHT22;14820;48.682;8.890;2023-09-30T09:46:27;16.80;99.90
26224;DHT22;14820;48.682;8.890;2023-09-30T09:48:54;16.70;99.90
26224;DHT22;14820;48.682;8.890;2023-09-30T09:51:23;16.80;99.90
26224;DHT22;14820;48.682;8.890;2023-09-30T09:53:50;16.70;99.90
26224;DHT22;14820;48.682;8.890;2023-09-30T09:56:17;16.70;99.90
26224;DHT22;14820;48.682;8.890;2023-09-30T09:58:46;16.80;99.90
26224;DHT22;14820;48.682;8.890;2023-09-30T10:01:13;16.80;99.90
26224;DHT22;14820;48.682;8.890;2023-09-30T10:03:39;16.80;99.90
26224;DHT22;14820;48.682;8.890;2023-09-30T10:06:05;16.90;99.90
26224;DHT22;14820;48.682;8.890;2023-09-30T10:08:35;17.10;99.90
26224;DHT22;14820;48.682;8.890;2023-09-30T10:11:02;17.10;99.90
26224;DHT22;14820;48.682;8.890;2023-09-30T10:13:50;17.20;99.90
26224;DHT22;14820;48.682;8.890;2023-09-30T10:19:10;17.20;99.90
26224;DHT22;14820;48.682;8.890;2023-09-30T10:21:36;17.20;99.90
26224;DHT22;14820;48.682;8.890;2023-09-30T10:40:47;17.40;99.90
26224;DHT22;14820;48.682;8.890;2023-09-30T10:45:56;17.60;99.90
26224;DHT22;14820;48.682;8.890;2023-09-30T10:50:52;17.60;99.90
26224;DHT22;14820;48.682;8.890;2023-09-30T10:53:18;17.50;99.90
26224;DHT22;14820;48.682;8.890;2023-09-30T10:55:45;17.50;99.90
26224;DHT22;14820;48.682;8.890;2023-09-30T10:58:12;17.50;99.90
26224;DHT22;14820;48.682;8.890;2023-09-30T11:00:38;17.50;99.90
26224;DHT22;14820;48.682;8.890;2023-09-30T11:03:04;17.50;99.90
26224;DHT22;14820;48.682;8.890;2023-09-30T11:05:31;17.50;99.90
26224;DHT22;14820;48.682;8.890;2023-09-30T11:08:02;17.50;99.90
26224;DHT22;14820;48.682;8.890;2023-09-30T11:10:29;17.50;99.90
26224;DHT22;14820;48.682;8.890;2023-09-30T11:12:58;17.50;99.90
26224;DHT22;14820;48.682;8.890;2023-09-30T11:15:24;17.50;99.90
26224;DHT22;14820;48.682;8.890;2023-09-30T11:17:52;17.60;99.90
26224;DHT22;14820;48.682;8.890;2023-09-30T11:20:18;17.60;99.90
26224;DHT22;14820;48.682;8.890;2023-09-30T11:22:44;17.60;99.90
26224;DHT22;14820;48.682;8.890;2023-09-30T11:25:17;17.60;99.90
26224;DHT22;14820;48.682;8.890;2023-09-30T11:27:43;17.60;99.90
26224;DHT22;14820;48.682;8.890;2023-09-30T11:30:11;17.60;99.90
26224;DHT22;14820;48.682;8.890;2023-09-30T11:32:37;17.60;99.90
26224;DHT22;14820;48.682;8.890;2023-09-30T11:35:09;17.60;99.90
26224;DHT22;14820;48.682;8.890;2023-09-30T11:37:35;17.60;99.90
26224;DHT22;14820;48.682;8.890;2023-09-30T11:40:14;17.70;99.90
26224;DHT22;14820;48.682;8.890;2023-09-30T11:42:40;17.70;99.90
26224;DHT22;14820;48.682;8.890;2023-09-30T11:45:22;17.70;99.90
26224;DHT22;14820;48.682;8.890;2023-09-30T11:47:48;17.80;99.90
26224;DHT22;14820;48.682;8.890;2023-09-30T11:50:14;17.80;99.90
26224;DHT22;14820;48.682;8.890;2023-09-30T11:52:44;17.80;99.90
26224;DHT22;14820;48.682;8.890;2023-09-30T11:55:09;17.80;99.90
26224;DHT22;14820;48.682;8.890;2023-09-30T11:57:38;17.80;99.90
26224;DHT22;14820;48.682;8.890;2023-09-30T12:00:06;17.90;99.90
26224;DHT22;14820;48.682;8.890;2023-09-30T12:02:39;17.80;99.90
26224;DHT22;14820;48.682;8.890;2023-09-30T12:05:06;17.80;99.90
26224;DHT22;14820;48.682;8.890;2023-09-30T12:07:37;17.80;99.90
26224;DHT22;14820;48.682;8.890;2023-09-30T12:10:04;17.90;99.90
26224;DHT22;14820;48.682;8.890;2023-09-30T12:12:29;17.80;99.90
26224;DHT22;14820;48.682;8.890;2023-09-30T12:14:55;17.80;99.90
26224;DHT22;14820;48.682;8.890;2023-09-30T12:17:21;17.90;99.90
26224;DHT22;14820;48.682;8.890;2023-09-30T12:19:47;17.90;99.90
26224;DHT22;14820;48.682;8.890;2023-09-30T12:22:13;17.90;99.90
26224;DHT22;14820;48.682;8.890;2023-09-30T12:24:39;17.90;99.90
26224;DHT22;14820;48.682;8.890;2023-09-30T12:27:05;18.00;99.90
26224;DHT22;14820;48.682;8.890;2023-09-30T12:29:31;18.00;99.90
26224;DHT22;14820;48.682;8.890;2023-09-30T12:31:57;18.00;99.90
26224;DHT22;14820;48.682;8.890;2023-09-30T12:34:23;18.00;99.90
26224;DHT22;14820;48.682;8.890;2023-09-30T12:36:51;18.00;99.90
26224;DHT22;14820;48.682;8.890;2023-09-30T12:39:17;18.10;99.90
26224;DHT22;14820;48.682;8.890;2023-09-30T12:41:49;18.20;99.90
26224;DHT22;14820;48.682;8.890;2023-09-30T12:44:14;18.20;99.90
26224;DHT22;14820;48.682;8.890;2023-09-30T12:46:40;18.20;99.90
26224;DHT22;14820;48.682;8.890;2023-09-30T12:49:06;18.30;99.90
26224;DHT22;14820;48.682;8.890;2023-09-30T12:51:33;18.30;99.90
26224;DHT22;14820;48.682;8.890;2023-09-30T12:54:00;18.30;99.90
26224;DHT22;14820;48.682;8.890;2023-09-30T12:56:25;18.40;99.90
26224;DHT22;14820;48.682;8.890;2023-09-30T12:58:51;18.40;99.90
26224;DHT22;14820;48.682;8.890;2023-09-30T13:01:17;18.50;99.90
26224;DHT22;14820;48.682;8.890;2023-09-30T13:03:46;18.60;99.90
26224;DHT22;14820;48.682;8.890;2023-09-30T13:06:12;18.70;99.90
26224;DHT22;14820;48.682;8.890;2023-09-30T13:08:38;18.80;99.90
26224;DHT22;14820;48.682;8.890;2023-09-30T13:11:04;18.80;99.90
26224;DHT22;14820;48.682;8.890;2023-09-30T13:13:31;18.90;99.90
26224;DHT22;14820;48.682;8.890;2023-09-30T13:15:59;18.90;99.90
26224;DHT22;14820;48.682;8.890;2023-09-30T13:18:25;19.00;99.90
26224;DHT22;14820;48.682;8.890;2023-09-30T13:20:50;19.10;99.90
26224;DHT22;14820;48.682;8.890;2023-09-30T13:23:18;19.10;99.90
26224;DHT22;14820;48.682;8.890;2023-09-30T13:25:44;19.10;99.90
26224;DHT22;14820;48.682;8.890;2023-09-30T13:28:09;19.20;99.90
26224;DHT22;14820;48.682;8.890;2023-09-30T13:30:35;19.20;99.90
26224;DHT22;14820;48.682;8.890;2023-09-30T13:33:01;19.30;99.90
26224;DHT22;14820;48.682;8.890;2023-09-30T13:35:27;19.30;99.90
26224;DHT22;14820;48.682;8.890;2023-09-30T13:37:53;19.30;99.90
26224;DHT22;14820;48.682;8.890;2023-09-30T13:40:18;19.40;99.90
26224;DHT22;14820;48.682;8.890;2023-09-30T13:42:45;19.30;99.90
26224;DHT22;14820;48.682;8.890;2023-09-30T13:45:11;19.30;99.90
26224;DHT22;14820;48.682;8.890;2023-09-30T13:47:37;19.20;99.90
26224;DHT22;14820;48.682;8.890;2023-09-30T13:50:03;19.20;99.90
26224;DHT22;14820;48.682;8.890;2023-09-30T13:52:35;19.20;99.90
26224;DHT22;14820;48.682;8.890;2023-09-30T13:55:01;19.20;99.90
26224;DHT22;14820;48.682;8.890;2023-09-30T13:57:27;19.20;99.90
26224;DHT22;14820;48.682;8.890;2023-09-30T13:59:53;19.10;99.90
26224;DHT22;14820;48.682;8.890;2023-09-30T14:02:19;19.10;99.90
26224;DHT22;14820;48.682;8.890;2023-09-30T14:04:45;19.10;99.90
26224;DHT22;14820;48.682;8.890;2023-09-30T14:07:10;19.10;99.90
26224;DHT22;14820;48.682;8.890;2023-09-30T14:09:36;19.10;99.90
26224;DHT22;14820;48.682;8.890;2023-09-30T14:12:03;19.20;99.90
26224;DHT22;14820;48.682;8.890;2023-09-30T14:14:33;19.20;99.90
26224;DHT22;14820;48.682;8.890;2023-09-30T14:16:59;19.20;99.90
26224;DHT22;14820;48.682;8.890;2023-09-30T14:19:25;19.30;99.90
26224;DHT22;14820;48.682;8.890;2023-09-30T14:21:51;19.30;99.90
26224;DHT22;14820;48.682;8.890;2023-09-30T14:24:17;19.30;99.90
26224;DHT22;14820;48.682;8.890;2023-09-30T14:26:42;19.30;99.90
26224;DHT22;14820;48.682;8.890;2023-09-30T14:29:09;19.30;99.90
26224;DHT22;14820;48.682;8.890;2023-09-30T14:31:37;19.30;99.90
26224;DHT22;14820;48.682;8.890;2023-09-30T14:34:03;19.30;99.90
26224;DHT22;14820;48.682;8.890;2023-09-30T14:36:30;19.30;99.90
26224;DHT22;14820;48.682;8.890;2023-09-30T14:38:58;19.30;99.90
26224;DHT22;14820;48.682;8.890;2023-09-30T14:41:24;19.30;99.90
26224;DHT22;14820;48.682;8.890;2023-09-30T14:43:50;19.30;99.90
26224;DHT22;14820;48.682;8.890;2023-09-30T14:46:15;19.30;99.90
26224;DHT22;14820;48.682;8.890;2023-09-30T14:48:41;19.30;99.90
26224;DHT22;14820;48.682;8.890;2023-09-30T14:51:07;19.30;99.90
26224;DHT22;14820;48.682;8.890;2023-09-30T14:53:33;19.40;99.90
26224;DHT22;14820;48.682;8.890;2023-09-30T14:55:59;19.40;99.90
26224;DHT22;14820;48.682;8.890;2023-09-30T14:58:25;19.40;99.90
26224;DHT22;14820;48.682;8.890;2023-09-30T15:00:50;19.40;99.90
26224;DHT22;14820;48.682;8.890;2023-09-30T15:03:16;19.40;99.90
26224;DHT22;14820;48.682;8.890;2023-09-30T15:05:41;19.30;99.90
26224;DHT22;14820;48.682;8.890;2023-09-30T15:08:07;19.40;99.90
26224;DHT22;14820;48.682;8.890;2023-09-30T15:10:36;19.40;99.90
26224;DHT22;14820;48.682;8.890;2023-09-30T15:13:02;19.40;99.90
26224;DHT22;14820;48.682;8.890;2023-09-30T15:15:29;19.30;99.90
26224;DHT22;14820;48.682;8.890;2023-09-30T15:17:55;19.30;99.90
26224;DHT22;14820;48.682;8.890;2023-09-30T15:20:21;19.20;99.90
26224;DHT22;14820;48.682;8.890;2023-09-30T15:22:46;19.20;99.90
26224;DHT22;14820;48.682;8.890;2023-09-30T15:25:12;19.10;99.90
26224;DHT22;14820;48.682;8.890;2023-09-30T15:27:38;19.10;99.90
26224;DHT22;14820;48.682;8.890;2023-09-30T15:30:04;19.10;99.90
26224;DHT22;14820;48.682;8.890;2023-09-30T15:32:31;19.10;99.90
26224;DHT22;14820;48.682;8.890;2023-09-30T15:34:57;19.10;99.90
26224;DHT22;14820;48.682;8.890;2023-09-30T15:37:23;19.00;99.90
26224;DHT22;14820;48.682;8.890;2023-09-30T15:39:48;19.00;99.90
26224;DHT22;14820;48.682;8.890;2023-09-30T15:42:14;19.00;99.90
26224;DHT22;14820;48.682;8.890;2023-09-30T15:44:41;19.00;99.90
26224;DHT22;14820;48.682;8.890;2023-09-30T15:47:07;19.00;99.90
26224;DHT22;14820;48.682;8.890;2023-09-30T15:49:34;18.90;99.90
26224;DHT22;14820;48.682;8.890;2023-09-30T15:52:01;18.90;99.90
26224;DHT22;14820;48.682;8.890;2023-09-30T15:54:27;18.90;99.90